createdAt,value
2022-12-18T00:00:10.772Z,6.60
2022-12-18T00:03:32.400Z,7.50
2022-12-18T00:06:54.785Z,9.88
2022-12-18T00:10:16.955Z,7.18
2022-12-18T00:13:39.307Z,9.00
2022-12-18T00:17:02.894Z,9.15
2022-12-18T00:20:26.784Z,6.70
2022-12-18T00:23:49.914Z,3.55
2022-12-18T00:27:11.890Z,8.45
2022-12-18T00:30:34.014Z,3.28
2022-12-18T00:33:58.221Z,9.32
2022-12-18T00:37:20.506Z,5.93
2022-12-18T00:40:44.466Z,6.82
2022-12-18T00:44:06.958Z,5.90
2022-12-18T00:47:28.556Z,2.53
2022-12-18T00:50:52.589Z,4.65
2022-12-18T00:54:14.578Z,4.47
2022-12-18T00:57:36.621Z,5.85
2022-12-18T01:00:58.524Z,6.40
2022-12-18T01:04:20.649Z,5.88
2022-12-18T01:07:44.023Z,4.35
2022-12-18T01:11:10.021Z,3.17
2022-12-18T01:14:31.962Z,4.70
2022-12-18T01:17:54.509Z,3.58
2022-12-18T01:21:18.639Z,5.32
2022-12-18T01:24:41.874Z,3.90
2022-12-18T01:28:04.014Z,3.50
2022-12-18T01:31:28.062Z,3.40
2022-12-18T01:34:50.043Z,4.28
2022-12-18T01:38:12.172Z,5.45
2022-12-18T01:41:50.744Z,2.85
2022-12-18T01:45:27.335Z,3.95
2022-12-18T01:48:52.199Z,5.88
2022-12-18T01:52:13.958Z,2.95
2022-12-18T01:55:43.158Z,6.45
2022-12-18T01:59:10.359Z,6.53
2022-12-18T02:02:33.091Z,3.75
2022-12-18T02:06:06.622Z,2.45
2022-12-18T02:09:34.099Z,7.22
2022-12-18T02:13:00.835Z,4.40
2022-12-18T02:16:32.179Z,3.70
2022-12-18T02:20:10.428Z,3.33
2022-12-18T02:23:48.046Z,5.90
2022-12-18T02:27:13.546Z,6.63
2022-12-18T02:30:37.431Z,3.17
2022-12-18T02:34:02.528Z,2.15
2022-12-18T02:37:27.049Z,2.78
2022-12-18T02:40:51.911Z,4.93
2022-12-18T02:44:15.973Z,4.45
2022-12-18T02:47:41.746Z,4.53
2022-12-18T02:51:10.637Z,5.63
2022-12-18T02:54:47.526Z,4.80
2022-12-18T02:58:17.448Z,2.78
2022-12-18T03:01:48.354Z,5.05
2022-12-18T03:05:15.564Z,3.17
2022-12-18T03:08:41.834Z,5.13
2022-12-18T03:12:27.686Z,5.32
2022-12-18T03:15:52.221Z,8.15
2022-12-18T03:19:18.940Z,5.30
2022-12-18T03:22:41.409Z,9.05
2022-12-18T03:26:07.816Z,5.30
2022-12-18T03:29:36.344Z,5.43
2022-12-18T03:33:05.081Z,5.75
2022-12-18T03:36:29.107Z,3.28
2022-12-18T03:39:50.860Z,8.10
2022-12-18T03:43:21.094Z,5.07
2022-12-18T03:46:49.314Z,4.65
2022-12-18T03:50:15.946Z,6.00
2022-12-18T03:53:46.154Z,4.45
2022-12-18T03:57:14.375Z,3.75
2022-12-18T04:00:37.081Z,6.15
2022-12-18T04:04:00.228Z,5.18
2022-12-18T04:07:23.607Z,4.40
2022-12-18T04:10:47.102Z,2.67
2022-12-18T04:14:11.844Z,6.28
2022-12-18T04:17:36.222Z,3.05
2022-12-18T04:20:57.983Z,6.05
2022-12-18T04:24:20.138Z,9.00
2022-12-18T04:27:43.359Z,3.95
2022-12-18T04:31:05.907Z,6.22
2022-12-18T04:34:27.947Z,3.90
2022-12-18T04:37:49.885Z,6.20
2022-12-18T04:41:11.959Z,8.73
2022-12-18T04:44:35.403Z,5.95
2022-12-18T04:47:59.479Z,3.90
2022-12-18T04:51:26.301Z,12.15
2022-12-18T04:54:49.118Z,12.20
2022-12-18T04:58:10.850Z,21.38
2022-12-18T05:01:35.694Z,11.32
2022-12-18T05:04:57.695Z,7.03
2022-12-18T05:08:19.627Z,6.15
2022-12-18T05:11:42.171Z,5.97
2022-12-18T05:15:05.895Z,5.47
2022-12-18T05:18:29.168Z,7.47
2022-12-18T05:21:51.001Z,8.20
2022-12-18T05:25:12.714Z,9.55
2022-12-18T05:28:36.484Z,5.40
2022-12-18T05:31:58.215Z,9.15
2022-12-18T05:35:21.711Z,6.25
2022-12-18T05:38:43.900Z,7.28
2022-12-18T05:42:05.700Z,8.40
2022-12-18T05:45:27.769Z,8.70
2022-12-18T05:48:51.356Z,20.27
2022-12-18T05:52:17.983Z,10.65
2022-12-18T05:55:41.839Z,5.85
2022-12-18T05:59:03.817Z,15.18
2022-12-18T06:02:26.016Z,9.77
2022-12-18T06:05:48.025Z,13.18
2022-12-18T06:09:11.313Z,11.45
2022-12-18T06:12:34.567Z,20.58
2022-12-18T06:15:56.583Z,11.57
2022-12-18T06:19:18.516Z,11.50
2022-12-18T06:22:40.529Z,18.50
2022-12-18T06:26:08.927Z,14.20
2022-12-18T06:29:31.065Z,23.55
2022-12-18T06:32:56.652Z,19.77
2022-12-18T06:36:18.927Z,13.38
2022-12-18T06:39:40.760Z,15.98
2022-12-18T06:43:04.320Z,18.30
2022-12-18T06:46:26.468Z,47.78
2022-12-18T06:49:50.454Z,46.33
2022-12-18T06:53:12.338Z,41.17
2022-12-18T06:56:33.908Z,32.65
2022-12-18T06:59:57.299Z,26.77
2022-12-18T07:03:19.364Z,30.45
2022-12-18T07:06:41.215Z,28.63
2022-12-18T07:10:03.051Z,28.02
2022-12-18T07:13:25.056Z,31.27
2022-12-18T07:16:48.473Z,29.73
2022-12-18T07:20:11.810Z,51.83
2022-12-18T07:23:34.495Z,39.22
2022-12-18T07:26:56.245Z,26.80
2022-12-18T07:30:18.124Z,32.83
2022-12-18T07:33:42.020Z,36.33
2022-12-18T07:37:04.386Z,34.80
2022-12-18T07:40:26.186Z,38.13
2022-12-18T07:43:48.634Z,36.03
2022-12-18T07:47:12.115Z,44.13
2022-12-18T07:50:35.618Z,33.85
2022-12-18T07:53:58.854Z,17.55
2022-12-18T07:57:48.435Z,26.63
2022-12-18T08:01:06.988Z,52.75
2022-12-18T08:04:29.007Z,45.25
2022-12-18T08:07:51.871Z,31.23
2022-12-18T08:11:13.943Z,31.52
2022-12-18T08:14:35.697Z,32.83
2022-12-18T08:17:58.828Z,23.45
2022-12-18T08:21:24.174Z,28.13
2022-12-18T08:24:47.368Z,24.17
2022-12-18T08:28:08.904Z,41.90
2022-12-18T08:31:31.826Z,32.03
2022-12-18T08:34:56.412Z,38.25
2022-12-18T08:38:18.308Z,35.80
2022-12-18T08:41:41.645Z,38.10
2022-12-18T08:45:02.256Z,25.38
2022-12-18T08:48:24.259Z,32.60
2022-12-18T08:51:46.290Z,24.42
2022-12-18T08:55:09.706Z,34.70
2022-12-18T08:58:33.215Z,30.45
2022-12-18T09:01:56.677Z,21.20
2022-12-18T09:05:18.423Z,29.58
2022-12-18T09:08:40.489Z,31.70
2022-12-18T09:12:02.459Z,26.75
2022-12-18T09:15:25.415Z,16.80
2022-12-18T09:18:46.829Z,17.65
2022-12-18T09:22:08.666Z,16.98
2022-12-18T09:25:34.065Z,15.68
2022-12-18T09:28:56.736Z,16.38
2022-12-18T09:32:22.470Z,23.17
2022-12-18T09:35:46.736Z,22.88
2022-12-18T09:39:09.070Z,27.80
2022-12-18T09:42:31.076Z,18.08
2022-12-18T09:45:57.404Z,17.63
2022-12-18T09:49:25.731Z,19.63
2022-12-18T09:52:51.553Z,21.45
2022-12-18T09:56:18.645Z,22.45
2022-12-18T09:59:41.334Z,15.90
2022-12-18T10:03:11.260Z,17.13
2022-12-18T10:06:41.586Z,17.05
2022-12-18T10:10:11.579Z,15.38
2022-12-18T10:13:40.714Z,14.18
2022-12-18T10:17:09.122Z,21.60
2022-12-18T10:20:36.829Z,17.35
2022-12-18T10:24:17.246Z,17.48
2022-12-18T10:27:39.177Z,32.33
2022-12-18T10:31:01.324Z,32.35
2022-12-18T10:34:22.947Z,31.50
2022-12-18T10:38:02.306Z,26.92
2022-12-18T10:41:29.463Z,22.08
2022-12-18T10:45:03.862Z,35.10
2022-12-18T10:48:26.378Z,29.60
2022-12-18T10:51:48.381Z,24.08
2022-12-18T10:55:19.175Z,20.88
2022-12-18T10:58:59.127Z,16.10
2022-12-18T11:02:29.099Z,46.22
2022-12-18T11:06:07.477Z,41.30
2022-12-18T11:09:30.400Z,37.83
2022-12-18T11:12:51.741Z,28.60
2022-12-18T11:16:22.056Z,31.55
2022-12-18T11:19:43.834Z,28.45
2022-12-18T11:23:07.631Z,34.70
2022-12-18T11:26:37.442Z,29.35
2022-12-18T11:30:11.222Z,27.30
2022-12-18T11:33:34.920Z,24.50
2022-12-18T11:36:57.212Z,20.58
2022-12-18T11:40:22.589Z,27.40
2022-12-18T11:43:52.477Z,22.00
2022-12-18T11:47:24.184Z,21.38
2022-12-18T11:50:51.853Z,20.65
2022-12-18T11:54:15.522Z,23.35
2022-12-18T11:57:46.547Z,31.08
2022-12-18T12:01:18.404Z,39.00
2022-12-18T12:04:56.913Z,34.03
2022-12-18T12:08:28.722Z,36.65
2022-12-18T12:12:02.719Z,28.60
2022-12-18T12:15:36.989Z,23.50
2022-12-18T12:19:10.316Z,17.33
2022-12-18T12:22:40.853Z,32.17
2022-12-18T12:26:09.236Z,28.13
2022-12-18T12:29:43.103Z,20.98
2022-12-18T12:33:16.676Z,23.85
2022-12-18T12:36:52.839Z,17.48
2022-12-18T12:40:50.114Z,17.80
2022-12-18T12:44:06.713Z,18.13
2022-12-18T12:47:33.472Z,17.90
2022-12-18T12:50:58.816Z,13.80
2022-12-18T12:54:25.603Z,19.25
2022-12-18T12:57:53.743Z,22.63
2022-12-18T13:01:27.470Z,19.13
2022-12-18T13:04:59.123Z,19.05
2022-12-18T13:08:30.044Z,12.30
2022-12-18T13:12:12.576Z,61.65
2022-12-18T13:15:40.795Z,18.48
2022-12-18T13:19:04.287Z,14.15
2022-12-18T13:22:37.200Z,17.10
2022-12-18T13:26:00.225Z,14.70
2022-12-18T13:29:44.846Z,15.88
2022-12-18T13:37:46.592Z,19.67
2022-12-18T13:41:26.376Z,16.98
2022-12-18T13:44:49.263Z,16.83
2022-12-18T13:48:25.738Z,14.30
2022-12-18T13:51:50.901Z,14.00
2022-12-18T13:55:21.356Z,18.48
2022-12-18T13:58:43.697Z,12.82
2022-12-18T14:02:15.953Z,16.23
2022-12-18T14:05:42.084Z,21.60
2022-12-18T14:09:06.451Z,19.58
2022-12-18T14:12:51.838Z,24.08
2022-12-18T14:16:17.653Z,16.50
2022-12-18T14:19:39.635Z,15.25
2022-12-18T14:23:02.287Z,19.35
2022-12-18T14:26:29.434Z,19.50
2022-12-18T14:29:53.678Z,17.02
2022-12-18T14:33:16.897Z,23.85
2022-12-18T14:36:42.418Z,73.43
2022-12-18T14:40:11.279Z,60.40
2022-12-18T14:43:36.923Z,38.92
2022-12-18T14:47:02.395Z,43.33
2022-12-18T14:50:24.325Z,42.47
2022-12-18T14:53:54.712Z,49.75
2022-12-18T14:57:23.651Z,31.27
2022-12-18T15:00:45.351Z,38.90
2022-12-18T15:04:29.703Z,31.77
2022-12-18T15:07:53.248Z,30.55
2022-12-18T15:11:48.583Z,43.55
2022-12-18T15:15:43.534Z,29.45
2022-12-18T15:19:05.233Z,32.78
2022-12-18T15:22:30.834Z,25.08
2022-12-18T15:25:58.986Z,35.83
2022-12-18T15:29:23.337Z,18.92
2022-12-18T15:32:45.897Z,15.27
2022-12-18T15:36:12.559Z,17.45
2022-12-18T15:39:36.973Z,14.60
2022-12-18T15:43:16.715Z,21.60
2022-12-18T15:46:38.676Z,24.73
2022-12-18T15:50:01.080Z,23.23
2022-12-18T15:53:22.954Z,19.13
2022-12-18T15:57:03.673Z,23.77
2022-12-18T16:00:25.629Z,15.50
2022-12-18T16:03:47.436Z,23.63
2022-12-18T16:07:16.233Z,30.35
2022-12-18T16:10:43.754Z,40.67
2022-12-18T16:14:08.430Z,37.75
2022-12-18T16:17:30.359Z,36.30
2022-12-18T16:20:52.440Z,20.85
2022-12-18T16:24:18.343Z,27.55
2022-12-18T16:27:42.573Z,26.05
2022-12-18T16:31:07.742Z,32.42
2022-12-18T16:34:35.218Z,38.72
2022-12-18T16:37:57.291Z,34.00
2022-12-18T16:41:33.441Z,22.00
2022-12-18T16:44:55.194Z,20.80
2022-12-18T16:48:18.693Z,23.60
2022-12-18T16:51:40.785Z,16.33
2022-12-18T16:55:02.632Z,11.30
2022-12-18T16:58:26.774Z,29.90
2022-12-18T17:01:49.121Z,16.30
2022-12-18T17:05:12.623Z,30.60
2022-12-18T17:08:34.621Z,26.15
2022-12-18T17:11:57.292Z,15.15
2022-12-18T17:15:19.614Z,23.13
2022-12-18T17:18:42.127Z,11.57
2022-12-18T17:22:05.417Z,11.20
2022-12-18T17:25:27.494Z,13.90
2022-12-18T17:28:49.502Z,11.02
2022-12-18T17:32:11.438Z,17.20
2022-12-18T17:35:33.531Z,11.38
2022-12-18T17:38:59.022Z,14.10
2022-12-18T17:42:20.768Z,24.75
2022-12-18T17:45:42.631Z,14.40
2022-12-18T17:49:04.837Z,11.45
2022-12-18T17:52:26.558Z,16.08
2022-12-18T17:55:56.681Z,10.68
2022-12-18T17:59:18.711Z,5.72
2022-12-18T18:02:40.767Z,9.20
2022-12-18T18:06:03.935Z,8.10
2022-12-18T18:09:26.193Z,7.07
2022-12-18T18:13:06.704Z,7.88
2022-12-18T18:16:29.738Z,16.23
2022-12-18T18:19:54.057Z,9.65
2022-12-18T18:23:16.075Z,11.90
2022-12-18T18:26:38.454Z,9.60
2022-12-18T18:30:01.672Z,11.93
2022-12-18T18:33:23.918Z,11.73
2022-12-18T18:36:46.766Z,8.23
2022-12-18T18:40:12.292Z,10.45
2022-12-18T18:43:34.794Z,9.65
2022-12-18T18:47:00.901Z,10.10
2022-12-18T18:50:23.901Z,12.02
2022-12-18T18:53:46.991Z,21.75
2022-12-18T18:57:20.250Z,12.40
2022-12-18T19:00:42.536Z,12.90
2022-12-18T19:04:06.763Z,13.32
2022-12-18T19:07:30.414Z,12.38
2022-12-18T19:10:57.710Z,12.82
2022-12-18T19:14:20.434Z,14.35
2022-12-18T19:17:42.450Z,5.55
2022-12-18T19:21:12.174Z,10.93
2022-12-18T19:24:34.462Z,14.57
2022-12-18T19:27:56.306Z,24.98
2022-12-18T19:31:24.829Z,14.32
2022-12-18T19:34:48.194Z,18.42
2022-12-18T19:38:12.406Z,16.88
2022-12-18T19:41:34.176Z,17.10
2022-12-18T19:44:56.700Z,22.20
2022-12-18T19:48:18.186Z,11.60
2022-12-18T19:51:40.529Z,7.60
2022-12-18T19:55:03.949Z,10.80
2022-12-18T19:58:25.765Z,8.48
2022-12-18T20:01:48.073Z,5.90
2022-12-18T20:05:13.021Z,7.13
2022-12-18T20:08:35.023Z,5.70
2022-12-18T20:11:58.647Z,8.82
2022-12-18T20:15:20.666Z,7.65
2022-12-18T20:18:42.861Z,6.53
2022-12-18T20:22:05.229Z,4.60
2022-12-18T20:25:27.119Z,6.45
2022-12-18T20:28:50.378Z,8.82
2022-12-18T20:32:12.611Z,8.95
2022-12-18T20:35:34.645Z,7.28
2022-12-18T20:39:01.527Z,6.78
2022-12-18T20:42:24.703Z,13.18
2022-12-18T20:45:48.021Z,10.02
2022-12-18T20:49:11.213Z,8.05
2022-12-18T20:52:33.283Z,9.32
2022-12-18T20:55:55.236Z,8.65
2022-12-18T20:59:17.515Z,7.43
2022-12-18T21:02:41.100Z,5.70
2022-12-18T21:06:04.018Z,7.57
2022-12-18T21:09:26.222Z,12.23
2022-12-18T21:13:02.985Z,6.63
2022-12-18T21:16:26.255Z,8.63
2022-12-18T21:19:49.526Z,8.18
2022-12-18T21:23:16.640Z,4.95
2022-12-18T21:26:45.143Z,9.60
2022-12-18T21:30:09.155Z,5.30
2022-12-18T21:33:31.193Z,4.15
2022-12-18T21:36:54.962Z,7.72
2022-12-18T21:40:16.644Z,6.97
2022-12-18T21:43:56.246Z,7.53
2022-12-18T21:47:22.893Z,6.10
2022-12-18T21:50:45.014Z,8.45
2022-12-18T21:54:08.737Z,6.57
2022-12-18T21:57:30.957Z,5.22
2022-12-18T22:00:54.007Z,4.85
2022-12-18T22:04:16.739Z,6.82
2022-12-18T22:07:38.595Z,9.45
2022-12-18T22:11:04.910Z,6.00
2022-12-18T22:14:26.892Z,7.93
2022-12-18T22:17:48.563Z,3.30
2022-12-18T22:21:28.718Z,6.93
2022-12-18T22:24:51.314Z,7.47
2022-12-18T22:28:31.619Z,4.43
2022-12-18T22:31:53.771Z,8.68
2022-12-18T22:35:16.261Z,11.13
2022-12-18T22:38:38.317Z,5.85
2022-12-18T22:42:00.602Z,5.05
2022-12-18T22:45:24.589Z,5.97
2022-12-18T22:48:46.583Z,5.75
2022-12-18T22:52:09.867Z,5.75
2022-12-18T22:55:31.399Z,6.22
2022-12-18T22:58:53.449Z,8.90
2022-12-18T23:02:17.861Z,10.80
2022-12-18T23:05:39.886Z,7.70
2022-12-18T23:09:01.633Z,6.50
2022-12-18T23:12:23.355Z,12.38
2022-12-18T23:15:45.317Z,5.15
2022-12-18T23:19:08.601Z,6.70
2022-12-18T23:22:31.413Z,11.38
2022-12-18T23:26:01.926Z,7.35
2022-12-18T23:29:23.728Z,8.05
2022-12-18T23:32:45.575Z,6.07
2022-12-18T23:36:09.347Z,9.60
2022-12-18T23:39:31.316Z,9.63
2022-12-18T23:42:53.012Z,4.85
2022-12-18T23:46:19.485Z,5.35
2022-12-18T23:49:41.391Z,8.70
2022-12-18T23:53:05.889Z,4.85
2022-12-18T23:56:29.003Z,11.18
2022-12-18T23:59:50.683Z,7.43
